createdAt,value
2023-08-20T00:01:13.458Z,97593.94
2023-08-20T00:04:15.855Z,97596.91
2023-08-20T00:07:19.438Z,97600.22
2023-08-20T00:10:21.183Z,97594.06
2023-08-20T00:13:22.766Z,97593.69
2023-08-20T00:16:24.562Z,97596.19
2023-08-20T00:19:26.392Z,97592.91
2023-08-20T00:22:28.178Z,97598.31
2023-08-20T00:25:30.039Z,97593.00
2023-08-20T00:28:31.730Z,97590.13
2023-08-20T00:31:33.358Z,97586.06
2023-08-20T00:34:35.225Z,97592.22
2023-08-20T00:37:37.107Z,97590.34
2023-08-20T00:40:39.055Z,97595.31
2023-08-20T00:43:40.597Z,97590.22
2023-08-20T00:46:42.380Z,97585.28
2023-08-20T00:49:43.985Z,97584.88
2023-08-20T00:52:46.685Z,97586.38
2023-08-20T00:55:48.727Z,97589.84
2023-08-20T00:58:50.948Z,97579.16
2023-08-20T01:01:52.571Z,97574.81
2023-08-20T01:04:54.191Z,97576.09
2023-08-20T01:08:14.174Z,97575.28
2023-08-20T01:11:28.042Z,97583.72
2023-08-20T01:14:29.664Z,97581.03
2023-08-20T01:17:32.146Z,97579.84
2023-08-20T01:20:40.392Z,97583.38
2023-08-20T01:24:00.665Z,97585.88
2023-08-20T01:27:20.770Z,97582.97
2023-08-20T01:30:22.745Z,97586.09
2023-08-20T01:33:26.236Z,97592.53
2023-08-20T01:36:27.822Z,97597.22
2023-08-20T01:39:29.396Z,97604.25
2023-08-20T01:42:30.887Z,97603.63
2023-08-20T01:45:32.405Z,97610.88
2023-08-20T01:48:33.982Z,97618.06
2023-08-20T01:51:37.521Z,97626.09
2023-08-20T01:54:39.053Z,97625.84
2023-08-20T01:57:40.584Z,97631.03
2023-08-20T02:00:42.158Z,97646.50
2023-08-20T02:03:43.721Z,97652.25
2023-08-20T02:06:45.231Z,97655.13
2023-08-20T02:09:49.651Z,97657.19
2023-08-20T02:12:51.237Z,97662.16
2023-08-20T02:16:03.485Z,97662.16
2023-08-20T02:19:06.777Z,97654.97
2023-08-20T02:22:08.375Z,97659.69
2023-08-20T02:25:09.932Z,97652.72
2023-08-20T02:28:11.536Z,97651.66
2023-08-20T02:31:14.152Z,97663.00
2023-08-20T02:34:15.739Z,97653.72
2023-08-20T02:37:17.295Z,97648.38
2023-08-20T02:40:20.069Z,97643.22
2023-08-20T02:43:21.610Z,97642.41
2023-08-20T02:46:23.171Z,97627.19
2023-08-20T02:49:24.757Z,97629.66
2023-08-20T02:52:26.243Z,97629.19
2023-08-20T02:55:27.812Z,97639.09
2023-08-20T02:58:29.369Z,97631.28
2023-08-20T03:01:31.690Z,97621.84
2023-08-20T03:04:33.362Z,97618.56
2023-08-20T03:07:35.188Z,97605.41
2023-08-20T03:10:37.008Z,97607.47
2023-08-20T03:13:38.638Z,97598.19
2023-08-20T03:16:40.215Z,97602.94
2023-08-20T03:19:58.663Z,97608.53
2023-08-20T03:23:00.259Z,97605.63
2023-08-20T03:26:01.826Z,97601.72
2023-08-20T03:29:04.351Z,97598.03
2023-08-20T03:32:06.108Z,97597.63
2023-08-20T03:35:07.987Z,97597.44
2023-08-20T03:38:09.718Z,97597.63
2023-08-20T03:41:11.914Z,97601.75
2023-08-20T03:44:13.688Z,97595.34
2023-08-20T03:47:16.792Z,97593.13
2023-08-20T03:50:18.374Z,97579.78
2023-08-20T03:53:20.432Z,97578.72
2023-08-20T03:56:21.956Z,97583.03
2023-08-20T03:59:23.504Z,97577.28
2023-08-20T04:02:25.071Z,97574.78
2023-08-20T04:05:26.652Z,97583.81
2023-08-20T04:08:28.392Z,97593.91
2023-08-20T04:11:30.585Z,97601.66
2023-08-20T04:14:32.215Z,97590.53
2023-08-20T04:17:34.001Z,97599.13
2023-08-20T04:20:35.985Z,97595.00
2023-08-20T04:23:38.334Z,97600.75
2023-08-20T04:26:39.866Z,97606.03
2023-08-20T04:29:41.454Z,97605.41
2023-08-20T04:32:43.115Z,97598.59
2023-08-20T04:35:44.693Z,97606.81
2023-08-20T04:38:46.239Z,97608.41
2023-08-20T04:41:48.239Z,97612.47
2023-08-20T04:44:53.016Z,97615.31
2023-08-20T04:47:54.964Z,97618.16
2023-08-20T04:50:56.594Z,97635.78
2023-08-20T04:53:58.125Z,97634.91
2023-08-20T04:56:59.679Z,97642.84
2023-08-20T05:00:02.138Z,97648.38
2023-08-20T05:03:18.996Z,97644.41
2023-08-20T05:06:20.852Z,97646.03
2023-08-20T05:09:23.068Z,97652.59
2023-08-20T05:12:24.773Z,97651.53
2023-08-20T05:15:26.310Z,97648.28
2023-08-20T05:18:28.106Z,97657.78
2023-08-20T05:21:29.962Z,97661.72
2023-08-20T05:24:32.150Z,97649.97
2023-08-20T05:27:35.121Z,97646.03
2023-08-20T05:30:38.826Z,97645.00
2023-08-20T05:33:40.422Z,97661.91
2023-08-20T05:36:43.334Z,97666.19
2023-08-20T05:39:45.685Z,97670.75
2023-08-20T05:42:50.563Z,97677.13
2023-08-20T05:45:53.840Z,97684.97
2023-08-20T05:48:57.773Z,97686.50
2023-08-20T05:52:00.740Z,97678.13
2023-08-20T05:55:04.273Z,97689.06
2023-08-20T05:58:06.053Z,97686.31
2023-08-20T06:01:08.546Z,97695.44
2023-08-20T06:04:10.587Z,97696.59
2023-08-20T06:07:12.167Z,97699.59
2023-08-20T06:10:13.763Z,97697.81
2023-08-20T06:13:15.395Z,97695.75
2023-08-20T06:16:16.924Z,97694.94
2023-08-20T06:19:18.618Z,97701.44
2023-08-20T06:22:20.164Z,97707.09
2023-08-20T06:25:21.706Z,97700.31
2023-08-20T06:28:23.231Z,97707.47
2023-08-20T06:31:24.831Z,97701.56
2023-08-20T06:34:26.352Z,97707.13
2023-08-20T06:37:27.904Z,97709.25
2023-08-20T06:40:29.596Z,97714.00
2023-08-20T06:43:31.144Z,97711.00
2023-08-20T06:46:32.725Z,97715.34
2023-08-20T06:49:34.255Z,97719.69
2023-08-20T06:52:35.853Z,97715.13
2023-08-20T06:55:37.610Z,97720.78
2023-08-20T06:58:40.800Z,97718.47
2023-08-20T07:01:42.478Z,97726.69
2023-08-20T07:04:44.033Z,97730.88
2023-08-20T07:07:46.622Z,97727.41
2023-08-20T07:10:48.197Z,97732.63
2023-08-20T07:13:49.729Z,97732.47
2023-08-20T07:16:51.258Z,97738.88
2023-08-20T07:19:52.835Z,97727.03
2023-08-20T07:22:54.791Z,97744.94
2023-08-20T07:26:13.057Z,97732.00
2023-08-20T07:29:14.575Z,97739.41
2023-08-20T07:32:16.113Z,97742.97
2023-08-20T07:35:17.676Z,97745.19
2023-08-20T07:38:19.219Z,97745.78
2023-08-20T07:41:21.475Z,97735.78
2023-08-20T07:44:23.046Z,97745.50
2023-08-20T07:47:24.623Z,97744.97
2023-08-20T07:50:26.156Z,97737.66
2023-08-20T07:53:27.718Z,97740.38
2023-08-20T07:56:30.299Z,97735.25
2023-08-20T07:59:31.835Z,97745.31
2023-08-20T08:02:33.359Z,97739.09
2023-08-20T08:05:34.888Z,97740.41
2023-08-20T08:08:36.455Z,97736.28
2023-08-20T08:11:37.980Z,97735.75
2023-08-20T08:14:39.511Z,97738.41
2023-08-20T08:17:41.102Z,97740.00
2023-08-20T08:20:43.029Z,97742.69
2023-08-20T08:23:44.535Z,97741.31
2023-08-20T08:26:46.093Z,97739.09
2023-08-20T08:29:47.612Z,97742.22
2023-08-20T08:32:49.451Z,97744.13
2023-08-20T08:35:51.044Z,97742.28
2023-08-20T08:38:53.605Z,97738.91
2023-08-20T08:42:01.748Z,97740.19
2023-08-20T08:45:04.216Z,97740.44
2023-08-20T08:48:06.293Z,97730.97
2023-08-20T08:51:07.911Z,97731.44
2023-08-20T08:54:10.166Z,97731.63
2023-08-20T08:57:12.243Z,97730.41
2023-08-20T09:00:14.408Z,97729.09
2023-08-20T09:03:16.182Z,97741.19
2023-08-20T09:06:17.731Z,97733.47
2023-08-20T09:09:20.929Z,97734.44
2023-08-20T09:12:22.486Z,97733.50
2023-08-20T09:15:33.057Z,97726.38
2023-08-20T09:18:42.491Z,97727.53
2023-08-20T09:21:48.041Z,97736.19
2023-08-20T09:24:57.181Z,97725.44
2023-08-20T09:27:58.809Z,97725.50
2023-08-20T09:31:04.039Z,97727.44
2023-08-20T09:34:05.841Z,97737.56
2023-08-20T09:37:11.710Z,97728.94
2023-08-20T09:40:13.356Z,97724.91
2023-08-20T09:43:16.854Z,97729.09
2023-08-20T09:46:20.533Z,97728.22
2023-08-20T09:49:24.106Z,97727.16
2023-08-20T09:52:29.184Z,97731.84
2023-08-20T09:55:35.642Z,97714.47
2023-08-20T09:58:39.299Z,97715.00
2023-08-20T10:01:41.869Z,97718.97
2023-08-20T10:04:44.767Z,97716.09
2023-08-20T10:07:46.918Z,97718.22
2023-08-20T10:10:48.455Z,97721.63
2023-08-20T10:13:50.365Z,97714.25
2023-08-20T10:16:54.018Z,97710.31
2023-08-20T10:19:58.705Z,97712.91
2023-08-20T10:23:04.544Z,97716.16
2023-08-20T10:26:12.441Z,97711.16
2023-08-20T10:29:39.759Z,97712.47
2023-08-20T10:32:45.037Z,97711.28
2023-08-20T10:35:46.755Z,97705.88
2023-08-20T10:38:48.558Z,97699.44
2023-08-20T10:42:20.630Z,97713.06
2023-08-20T10:45:22.326Z,97697.94
2023-08-20T10:48:25.412Z,97701.34
2023-08-20T10:51:33.081Z,97703.09
2023-08-20T10:54:35.492Z,97683.41
2023-08-20T10:57:37.737Z,97686.84
2023-08-20T11:00:39.618Z,97692.09
2023-08-20T11:03:42.625Z,97687.75
2023-08-20T11:06:45.197Z,97688.78
2023-08-20T11:09:48.179Z,97690.69
2023-08-20T11:12:49.708Z,97690.06
2023-08-20T11:15:51.291Z,97682.25
2023-08-20T11:18:54.549Z,97682.56
2023-08-20T11:21:56.165Z,97673.44
2023-08-20T11:24:57.701Z,97678.34
2023-08-20T11:27:59.253Z,97680.94
2023-08-20T11:31:02.388Z,97677.84
2023-08-20T11:34:04.836Z,97669.69
2023-08-20T11:37:07.216Z,97671.22
2023-08-20T11:40:09.346Z,97669.25
2023-08-20T11:43:11.100Z,97662.53
2023-08-20T11:46:17.205Z,97667.47
2023-08-20T11:49:27.839Z,97664.28
2023-08-20T11:52:33.340Z,97661.16
2023-08-20T11:55:36.160Z,97657.31
2023-08-20T11:58:37.698Z,97646.88
2023-08-20T12:01:39.585Z,97653.88
2023-08-20T12:04:43.029Z,97643.97
2023-08-20T12:07:59.516Z,97641.41
2023-08-20T12:11:03.178Z,97643.03
2023-08-20T12:14:04.896Z,97635.75
2023-08-20T12:17:07.656Z,97634.16
2023-08-20T12:20:14.711Z,97635.06
2023-08-20T12:23:17.679Z,97629.38
2023-08-20T12:26:19.915Z,97624.00
2023-08-20T12:29:23.311Z,97629.88
2023-08-20T12:32:25.516Z,97618.03
2023-08-20T12:35:27.200Z,97617.75
2023-08-20T12:38:34.671Z,97622.91
2023-08-20T12:41:39.905Z,97614.00
2023-08-20T12:44:41.474Z,97604.81
2023-08-20T12:47:43.104Z,97610.41
2023-08-20T12:50:44.570Z,97601.88
2023-08-20T12:53:46.511Z,97611.25
2023-08-20T12:56:48.167Z,97623.50
2023-08-20T12:59:49.827Z,97604.06
2023-08-20T13:02:52.418Z,97601.94
2023-08-20T13:05:54.347Z,97610.44
2023-08-20T13:08:56.203Z,97600.34
2023-08-20T13:11:59.737Z,97608.72
2023-08-20T13:15:02.947Z,97601.50
2023-08-20T13:18:05.376Z,97604.06
2023-08-20T13:21:07.087Z,97606.22
2023-08-20T13:24:09.965Z,97610.38
2023-08-20T13:27:11.512Z,97603.81
2023-08-20T13:30:14.194Z,97596.28
2023-08-20T13:33:15.822Z,97602.47
2023-08-20T13:36:17.512Z,97601.56
2023-08-20T13:39:19.689Z,97599.88
2023-08-20T13:42:22.776Z,97601.75
2023-08-20T13:45:24.839Z,97603.50
2023-08-20T13:48:26.505Z,97603.56
2023-08-20T13:51:28.191Z,97601.59
2023-08-20T13:54:29.712Z,97607.56
2023-08-20T13:57:31.266Z,97603.72
2023-08-20T14:00:32.930Z,97600.09
2023-08-20T14:03:34.493Z,97599.94
2023-08-20T14:06:36.140Z,97594.06
2023-08-20T14:09:37.799Z,97605.56
2023-08-20T14:12:41.005Z,97609.09
2023-08-20T14:15:43.207Z,97603.19
2023-08-20T14:18:44.944Z,97605.53
2023-08-20T14:21:47.102Z,97606.53
2023-08-20T14:24:48.756Z,97592.84
2023-08-20T14:27:50.313Z,97596.75
2023-08-20T14:30:57.628Z,97593.28
2023-08-20T14:33:59.265Z,97600.50
2023-08-20T14:37:00.816Z,97598.91
2023-08-20T14:40:02.988Z,97594.97
2023-08-20T14:43:04.857Z,97597.84
2023-08-20T14:46:06.424Z,97589.91
2023-08-20T14:49:08.068Z,97594.41
2023-08-20T14:52:19.818Z,97584.38
2023-08-20T14:55:22.658Z,97585.88
2023-08-20T14:58:24.311Z,97581.34
2023-08-20T15:01:25.980Z,97576.47
2023-08-20T15:04:27.523Z,97582.41
2023-08-20T15:07:29.077Z,97574.34
2023-08-20T15:10:30.627Z,97580.53
2023-08-20T15:13:32.925Z,97573.16
2023-08-20T15:16:34.596Z,97569.09
2023-08-20T15:19:36.404Z,97567.47
2023-08-20T15:22:38.703Z,97573.28
2023-08-20T15:25:41.028Z,97570.72
2023-08-20T15:28:42.616Z,97567.91
2023-08-20T15:31:44.257Z,97570.31
2023-08-20T15:34:45.842Z,97563.28
2023-08-20T15:37:47.484Z,97558.19
2023-08-20T15:40:49.108Z,97561.41
2023-08-20T15:43:50.663Z,97552.81
2023-08-20T15:46:52.235Z,97556.31
2023-08-20T15:49:53.983Z,97556.81
2023-08-20T15:52:55.546Z,97557.81
2023-08-20T15:55:57.100Z,97555.81
2023-08-20T15:58:58.607Z,97554.81
2023-08-20T16:02:00.306Z,97556.16
2023-08-20T16:05:01.834Z,97563.34
2023-08-20T16:08:03.468Z,97561.78
2023-08-20T16:11:04.992Z,97566.47
2023-08-20T16:14:06.642Z,97566.13
2023-08-20T16:17:08.194Z,97563.84
2023-08-20T16:20:10.459Z,97567.53
2023-08-20T16:23:12.194Z,97560.47
2023-08-20T16:26:13.911Z,97560.34
2023-08-20T16:29:15.420Z,97554.00
2023-08-20T16:32:17.096Z,97562.22
2023-08-20T16:35:18.881Z,97563.31
2023-08-20T16:38:20.802Z,97567.31
2023-08-20T16:41:22.521Z,97562.63
2023-08-20T16:44:24.200Z,97578.53
2023-08-20T16:47:25.963Z,97577.50
2023-08-20T16:50:27.627Z,97574.03
2023-08-20T16:53:29.245Z,97579.50
2023-08-20T16:56:31.110Z,97578.97
2023-08-20T16:59:33.149Z,97575.78
2023-08-20T17:02:36.412Z,97576.78
2023-08-20T17:05:38.014Z,97576.63
2023-08-20T17:08:39.674Z,97580.69
2023-08-20T17:11:41.219Z,97569.66
2023-08-20T17:14:43.389Z,97578.63
2023-08-20T17:17:45.815Z,97579.47
2023-08-20T17:20:47.403Z,97574.78
2023-08-20T17:23:48.965Z,97574.50
2023-08-20T17:26:50.522Z,97578.22
2023-08-20T17:29:52.092Z,97583.84
2023-08-20T17:32:53.771Z,97582.16
2023-08-20T17:35:56.519Z,97594.44
2023-08-20T17:38:59.638Z,97587.81
2023-08-20T17:42:02.854Z,97592.00
2023-08-20T17:45:04.834Z,97593.03
2023-08-20T17:48:06.929Z,97592.59
2023-08-20T17:51:08.618Z,97594.19
2023-08-20T17:54:10.385Z,97600.69
2023-08-20T17:57:11.925Z,97600.84
2023-08-20T18:00:13.892Z,97601.81
2023-08-20T18:03:15.718Z,97605.41
2023-08-20T18:06:17.669Z,97607.50
2023-08-20T18:09:19.817Z,97612.00
2023-08-20T18:12:21.453Z,97625.50
2023-08-20T18:15:23.012Z,97620.47
2023-08-20T18:18:24.637Z,97620.28
2023-08-20T18:21:26.263Z,97625.22
2023-08-20T18:24:27.839Z,97625.56
2023-08-20T18:27:29.735Z,97623.97
2023-08-20T18:30:31.393Z,97628.31
2023-08-20T18:33:33.533Z,97633.78
2023-08-20T18:36:35.160Z,97634.06
2023-08-20T18:39:36.763Z,97636.50
2023-08-20T18:42:39.282Z,97638.09
2023-08-20T18:45:41.302Z,97651.59
2023-08-20T18:48:42.904Z,97653.22
2023-08-20T18:51:44.495Z,97653.19
2023-08-20T18:54:46.087Z,97658.03
2023-08-20T18:57:47.601Z,97662.88
2023-08-20T19:00:49.798Z,97661.44
2023-08-20T19:03:52.144Z,97666.84
2023-08-20T19:06:53.758Z,97680.06
2023-08-20T19:09:56.453Z,97678.13
2023-08-20T19:12:58.345Z,97687.25
2023-08-20T19:16:00.025Z,97695.03
2023-08-20T19:19:01.680Z,97694.19
2023-08-20T19:22:03.224Z,97702.47
2023-08-20T19:25:05.225Z,97705.84
2023-08-20T19:28:10.456Z,97710.66
2023-08-20T19:31:13.245Z,97705.78
2023-08-20T19:34:14.885Z,97706.72
2023-08-20T19:37:16.441Z,97703.72
2023-08-20T19:40:18.012Z,97712.31
2023-08-20T19:43:19.656Z,97709.56
2023-08-20T19:46:21.218Z,97719.00
2023-08-20T19:49:22.837Z,97716.25
2023-08-20T19:52:25.033Z,97718.34
2023-08-20T19:55:26.951Z,97726.69
2023-08-20T19:58:28.554Z,97732.88
2023-08-20T20:01:30.564Z,97735.22
2023-08-20T20:04:32.271Z,97736.50
2023-08-20T20:07:33.978Z,97738.84
2023-08-20T20:10:35.968Z,97734.94
2023-08-20T20:13:37.703Z,97738.69
2023-08-20T20:16:39.311Z,97740.28
2023-08-20T20:19:41.908Z,97744.22
2023-08-20T20:22:46.313Z,97738.44
2023-08-20T20:25:47.856Z,97743.28
2023-08-20T20:28:49.512Z,97740.25
2023-08-20T20:31:51.208Z,97747.16
2023-08-20T20:34:53.199Z,97747.31
2023-08-20T20:37:54.834Z,97737.00
2023-08-20T20:40:56.426Z,97739.88
2023-08-20T20:43:58.072Z,97740.97
2023-08-20T20:46:59.631Z,97743.81
2023-08-20T20:50:02.124Z,97734.59
2023-08-20T20:53:04.619Z,97735.59
2023-08-20T20:56:06.270Z,97737.88
2023-08-20T20:59:08.063Z,97737.78
2023-08-20T21:02:09.793Z,97752.91
2023-08-20T21:05:11.799Z,97749.06
2023-08-20T21:08:13.323Z,97750.03
2023-08-20T21:11:14.974Z,97749.47
2023-08-20T21:14:16.603Z,97758.88
2023-08-20T21:17:18.398Z,97752.91
2023-08-20T21:20:20.027Z,97760.00
2023-08-20T21:23:22.002Z,97764.31
2023-08-20T21:26:24.992Z,97763.09
2023-08-20T21:29:26.531Z,97774.25
2023-08-20T21:32:28.307Z,97765.50
2023-08-20T21:35:30.653Z,97767.03
2023-08-20T21:38:33.331Z,97768.41
2023-08-20T21:41:35.605Z,97768.91
2023-08-20T21:44:37.273Z,97769.97
2023-08-20T21:47:40.353Z,97766.13
2023-08-20T21:50:42.024Z,97764.88
2023-08-20T21:53:44.622Z,97773.56
2023-08-20T21:56:54.423Z,97774.53
2023-08-20T21:59:57.030Z,97771.28
2023-08-20T22:02:59.693Z,97768.00
2023-08-20T22:06:02.284Z,97770.34
2023-08-20T22:09:04.193Z,97767.78
2023-08-20T22:12:06.034Z,97772.50
2023-08-20T22:15:08.499Z,97774.25
2023-08-20T22:18:10.297Z,97778.84
2023-08-20T22:21:12.087Z,97772.63
2023-08-20T22:24:21.442Z,97772.28
2023-08-20T22:27:23.244Z,97769.69
2023-08-20T22:30:25.067Z,97772.28
2023-08-20T22:33:26.847Z,97773.00
2023-08-20T22:36:28.459Z,97770.41
2023-08-20T22:39:30.450Z,97775.69
2023-08-20T22:42:32.034Z,97773.00
2023-08-20T22:45:34.094Z,97763.28
2023-08-20T22:48:36.055Z,97772.06
2023-08-20T22:51:37.858Z,97772.78
2023-08-20T22:54:40.654Z,97783.78
2023-08-20T22:57:42.469Z,97772.53
2023-08-20T23:00:44.267Z,97776.19
2023-08-20T23:03:46.027Z,97766.47
2023-08-20T23:06:48.071Z,97773.38
2023-08-20T23:09:49.854Z,97775.34
2023-08-20T23:12:51.689Z,97774.53
2023-08-20T23:15:54.474Z,97770.66
2023-08-20T23:18:56.177Z,97772.97
2023-08-20T23:21:58.276Z,97774.06
2023-08-20T23:25:00.124Z,97768.09
2023-08-20T23:28:01.720Z,97772.28
2023-08-20T23:31:07.247Z,97771.09
2023-08-20T23:34:09.084Z,97769.72
2023-08-20T23:37:11.325Z,97763.38
2023-08-20T23:40:13.208Z,97761.72
2023-08-20T23:43:15.258Z,97764.84
2023-08-20T23:46:17.536Z,97760.41
2023-08-20T23:49:19.293Z,97752.56
2023-08-20T23:52:21.094Z,97758.19
2023-08-20T23:55:22.896Z,97750.13
2023-08-20T23:58:24.898Z,97750.81
